createdAt,value
2022-12-15T00:00:45.325Z,5.75
2022-12-15T00:03:32.110Z,5.15
2022-12-15T00:06:20.229Z,6.93
2022-12-15T00:09:11.170Z,5.15
2022-12-15T00:12:00.149Z,3.38
2022-12-15T00:14:46.850Z,2.75
2022-12-15T00:17:33.388Z,2.78
2022-12-15T00:20:19.866Z,6.13
2022-12-15T00:23:06.542Z,6.30
2022-12-15T00:25:53.185Z,6.05
2022-12-15T00:28:40.478Z,8.50
2022-12-15T00:31:27.259Z,3.75
2022-12-15T00:34:14.052Z,6.10
2022-12-15T00:37:00.339Z,5.80
2022-12-15T00:39:28.645Z,4.70
2022-12-15T00:41:56.605Z,7.68
2022-12-15T00:44:24.740Z,7.22
2022-12-15T00:46:55.758Z,6.88
2022-12-15T00:49:44.039Z,8.35
2022-12-15T00:52:33.044Z,8.73
2022-12-15T00:55:20.439Z,6.07
2022-12-15T00:58:07.164Z,4.15
2022-12-15T01:00:53.381Z,4.75
2022-12-15T01:03:42.778Z,6.80
2022-12-15T01:06:32.608Z,6.95
2022-12-15T01:09:21.068Z,6.97
2022-12-15T01:12:07.727Z,7.15
2022-12-15T01:14:55.447Z,5.82
2022-12-15T01:17:41.980Z,5.65
2022-12-15T01:20:34.790Z,8.35
2022-12-15T01:23:02.915Z,6.80
2022-12-15T01:25:30.902Z,8.40
2022-12-15T01:27:59.817Z,4.47
2022-12-15T01:30:28.046Z,4.72
2022-12-15T01:32:55.955Z,5.00
2022-12-15T01:35:24.061Z,4.40
2022-12-15T01:37:52.619Z,5.47
2022-12-15T01:40:40.263Z,2.30
2022-12-15T01:43:20.974Z,3.35
2022-12-15T01:46:02.864Z,3.88
2022-12-15T01:48:52.211Z,3.05
2022-12-15T01:51:32.783Z,1.75
2022-12-15T01:54:04.983Z,1.83
2022-12-15T01:56:38.281Z,1.35
2022-12-15T01:59:09.777Z,1.48
2022-12-15T02:01:38.430Z,1.48
2022-12-15T02:04:09.120Z,2.13
2022-12-15T02:06:37.420Z,1.13
2022-12-15T02:09:06.242Z,1.45
2022-12-15T02:11:43.049Z,1.95
2022-12-15T02:14:13.883Z,0.88
2022-12-15T02:17:02.596Z,1.63
2022-12-15T02:19:40.079Z,0.90
2022-12-15T02:22:23.094Z,1.67
2022-12-15T02:25:16.617Z,2.15
2022-12-15T02:27:59.357Z,1.75
2022-12-15T02:31:13.174Z,2.30
2022-12-15T02:33:51.129Z,1.60
2022-12-15T02:36:37.340Z,2.90
2022-12-15T02:39:06.035Z,2.15
2022-12-15T02:41:37.200Z,1.70
2022-12-15T02:44:23.759Z,1.58
2022-12-15T02:47:22.182Z,2.15
2022-12-15T02:50:00.596Z,2.17
2022-12-15T02:52:52.446Z,1.63
2022-12-15T02:55:34.894Z,1.50
2022-12-15T02:58:08.617Z,1.70
2022-12-15T03:00:45.028Z,0.50
2022-12-15T03:03:20.361Z,1.30
2022-12-15T03:05:55.248Z,1.63
2022-12-15T03:08:24.275Z,0.82
2022-12-15T03:10:55.014Z,0.68
2022-12-15T03:13:24.465Z,1.33
2022-12-15T03:16:11.989Z,2.30
2022-12-15T03:18:40.747Z,1.75
2022-12-15T03:21:09.143Z,1.75
2022-12-15T03:23:37.197Z,1.55
2022-12-15T03:26:06.662Z,0.95
2022-12-15T03:28:34.840Z,1.25
2022-12-15T03:31:03.035Z,0.75
2022-12-15T03:33:34.056Z,2.03
2022-12-15T03:36:02.549Z,2.03
2022-12-15T03:38:31.088Z,2.08
2022-12-15T03:40:59.354Z,1.73
2022-12-15T03:43:27.749Z,1.98
2022-12-15T03:45:55.886Z,2.05
2022-12-15T03:48:24.062Z,1.88
2022-12-15T03:50:51.980Z,1.85
2022-12-15T03:53:20.574Z,1.67
2022-12-15T03:55:48.630Z,1.65
2022-12-15T03:58:16.703Z,1.00
2022-12-15T04:00:45.118Z,2.05
2022-12-15T04:03:13.428Z,1.75
2022-12-15T04:05:41.756Z,2.33
2022-12-15T04:08:09.749Z,2.10
2022-12-15T04:10:38.251Z,1.33
2022-12-15T04:13:10.049Z,1.13
2022-12-15T04:15:39.486Z,2.22
2022-12-15T04:18:12.895Z,1.73
2022-12-15T04:20:41.266Z,1.67
2022-12-15T04:23:09.703Z,1.63
2022-12-15T04:25:56.651Z,3.88
2022-12-15T04:28:43.196Z,1.25
2022-12-15T04:31:46.407Z,2.53
2022-12-15T04:34:39.587Z,0.90
2022-12-15T04:37:30.230Z,1.70
2022-12-15T04:40:18.945Z,1.58
2022-12-15T04:43:06.503Z,2.30
2022-12-15T04:45:54.116Z,2.38
2022-12-15T04:48:40.541Z,0.68
2022-12-15T04:51:26.907Z,2.72
2022-12-15T04:54:13.725Z,1.23
2022-12-15T04:57:01.042Z,0.65
2022-12-15T04:59:47.411Z,1.60
2022-12-15T05:02:35.082Z,0.70
2022-12-15T05:05:21.851Z,0.73
2022-12-15T05:08:08.458Z,1.00
2022-12-15T05:10:55.296Z,0.73
2022-12-15T05:13:42.697Z,1.88
2022-12-15T05:16:29.494Z,2.05
2022-12-15T05:19:16.817Z,0.88
2022-12-15T05:22:03.618Z,1.38
2022-12-15T05:24:50.789Z,2.22
2022-12-15T05:27:38.077Z,2.00
2022-12-15T05:30:25.355Z,1.63
2022-12-15T05:32:53.401Z,1.95
2022-12-15T05:35:22.100Z,2.35
2022-12-15T05:37:50.783Z,1.83
2022-12-15T05:40:19.243Z,1.23
2022-12-15T05:42:50.048Z,1.70
2022-12-15T05:45:18.346Z,1.90
2022-12-15T05:47:52.531Z,2.75
2022-12-15T05:50:21.216Z,1.35
2022-12-15T05:52:51.912Z,0.70
2022-12-15T05:55:20.517Z,1.05
2022-12-15T05:57:56.268Z,1.45
2022-12-15T06:00:24.704Z,2.47
2022-12-15T06:02:53.120Z,6.38
2022-12-15T06:05:21.233Z,2.20
2022-12-15T06:07:49.305Z,1.52
2022-12-15T06:10:17.275Z,2.10
2022-12-15T06:12:45.389Z,2.85
2022-12-15T06:15:13.783Z,1.65
2022-12-15T06:17:41.828Z,2.45
2022-12-15T06:20:10.219Z,1.50
2022-12-15T06:22:38.612Z,0.75
2022-12-15T06:25:07.325Z,2.30
2022-12-15T06:27:37.873Z,1.30
2022-12-15T06:30:07.073Z,1.35
2022-12-15T06:32:36.410Z,1.58
2022-12-15T06:35:05.083Z,1.58
2022-12-15T06:37:33.113Z,0.95
2022-12-15T06:40:01.167Z,1.80
2022-12-15T06:42:30.280Z,1.95
2022-12-15T06:44:59.212Z,1.55
2022-12-15T06:47:27.302Z,1.00
2022-12-15T06:49:55.964Z,1.25
2022-12-15T06:52:24.923Z,3.40
2022-12-15T06:54:53.499Z,2.03
2022-12-15T06:57:22.175Z,1.42
2022-12-15T06:59:50.896Z,2.70
2022-12-15T07:02:23.660Z,2.88
2022-12-15T07:04:55.096Z,1.92
2022-12-15T07:07:23.625Z,4.50
2022-12-15T07:09:52.277Z,3.42
2022-12-15T07:12:20.571Z,3.58
2022-12-15T07:14:53.390Z,2.83
2022-12-15T07:17:22.257Z,2.38
2022-12-15T07:19:51.235Z,0.93
2022-12-15T07:22:21.056Z,1.55
2022-12-15T07:24:49.034Z,2.08
2022-12-15T07:27:18.216Z,2.05
2022-12-15T07:29:46.662Z,2.75
2022-12-15T07:32:15.788Z,1.88
2022-12-15T07:34:43.724Z,2.42
2022-12-15T07:37:13.683Z,3.63
2022-12-15T07:39:41.708Z,2.28
2022-12-15T07:42:10.401Z,3.95
2022-12-15T07:44:38.613Z,2.28
2022-12-15T07:47:07.202Z,2.13
2022-12-15T07:49:35.224Z,2.53
2022-12-15T07:52:03.374Z,3.92
2022-12-15T07:54:31.470Z,3.25
2022-12-15T07:57:00.312Z,3.42
2022-12-15T07:59:28.972Z,4.55
2022-12-15T08:01:58.069Z,2.38
2022-12-15T08:04:27.300Z,2.67
2022-12-15T08:06:55.453Z,2.30
2022-12-15T08:09:24.031Z,1.70
2022-12-15T08:11:52.632Z,1.65
2022-12-15T08:14:21.239Z,2.97
2022-12-15T08:16:50.044Z,2.78
2022-12-15T08:19:19.309Z,3.67
2022-12-15T08:21:47.930Z,4.00
2022-12-15T08:24:17.383Z,1.98
2022-12-15T08:26:49.814Z,3.13
2022-12-15T08:32:08.310Z,4.65
2022-12-15T08:34:36.599Z,1.75
2022-12-15T08:37:04.678Z,2.75
2022-12-15T08:39:33.241Z,2.53
2022-12-15T08:42:01.413Z,2.63
2022-12-15T08:44:29.761Z,3.28
2022-12-15T08:46:58.206Z,3.22
2022-12-15T08:49:26.548Z,2.90
2022-12-15T08:51:55.655Z,2.25
2022-12-15T08:54:23.837Z,2.05
2022-12-15T08:56:51.817Z,2.17
2022-12-15T08:59:20.241Z,2.72
2022-12-15T09:01:48.789Z,3.13
2022-12-15T09:04:17.309Z,4.65
2022-12-15T09:06:50.491Z,2.30
2022-12-15T09:09:20.077Z,3.25
2022-12-15T09:11:49.155Z,3.60
2022-12-15T09:14:19.607Z,3.85
2022-12-15T09:16:50.696Z,3.50
2022-12-15T09:19:19.727Z,2.15
2022-12-15T09:21:48.378Z,2.55
2022-12-15T09:24:25.944Z,3.60
2022-12-15T09:26:57.433Z,2.65
2022-12-15T09:29:26.039Z,1.80
2022-12-15T09:31:54.226Z,1.60
2022-12-15T09:34:22.641Z,2.55
2022-12-15T09:36:50.747Z,3.85
2022-12-15T09:39:18.854Z,4.13
2022-12-15T09:42:05.875Z,2.90
2022-12-15T09:44:34.729Z,2.63
2022-12-15T09:47:28.795Z,2.85
2022-12-15T09:50:03.383Z,1.42
2022-12-15T09:52:40.631Z,1.77
2022-12-15T09:55:24.383Z,1.63
2022-12-15T09:58:10.898Z,3.72
2022-12-15T10:00:55.346Z,1.98
2022-12-15T10:03:39.122Z,1.88
2022-12-15T10:06:21.268Z,3.08
2022-12-15T10:08:58.590Z,1.83
2022-12-15T10:14:51.257Z,1.65
2022-12-15T10:17:28.107Z,2.08
2022-12-15T10:20:32.568Z,1.75
2022-12-15T10:23:11.359Z,1.50
2022-12-15T10:25:40.184Z,2.22
2022-12-15T10:28:18.425Z,2.30
2022-12-15T10:30:53.144Z,1.20
2022-12-15T10:33:25.551Z,3.63
2022-12-15T10:35:55.168Z,1.58
2022-12-15T10:38:42.634Z,2.00
2022-12-15T10:41:22.227Z,2.22
2022-12-15T10:43:53.130Z,2.30
2022-12-15T10:46:26.269Z,1.23
2022-12-15T10:49:21.453Z,1.55
2022-12-15T10:51:56.250Z,1.52
2022-12-15T10:54:27.052Z,2.55
2022-12-15T10:56:58.747Z,2.15
2022-12-15T10:59:34.431Z,1.58
2022-12-15T11:02:23.968Z,2.53
2022-12-15T11:04:59.822Z,1.77
2022-12-15T11:07:40.033Z,2.67
2022-12-15T11:10:52.139Z,2.05
2022-12-15T11:13:22.692Z,2.40
2022-12-15T11:15:53.352Z,1.92
2022-12-15T11:18:55.860Z,1.58
2022-12-15T11:21:38.683Z,2.15
2022-12-15T11:24:18.562Z,1.52
2022-12-15T11:26:51.516Z,1.17
2022-12-15T11:29:39.106Z,1.23
2022-12-15T11:32:09.288Z,1.15
2022-12-15T11:34:44.398Z,0.85
2022-12-15T11:40:30.888Z,2.05
2022-12-15T11:43:41.939Z,1.52
2022-12-15T11:46:21.520Z,0.98
2022-12-15T11:49:17.204Z,1.70
2022-12-15T11:52:06.506Z,3.17
2022-12-15T11:54:40.694Z,1.92
2022-12-15T11:57:23.626Z,1.45
2022-12-15T12:00:10.341Z,2.13
2022-12-15T12:02:57.567Z,3.83
2022-12-15T12:05:37.310Z,1.70
2022-12-15T12:08:05.385Z,1.30
2022-12-15T12:10:53.463Z,1.67
2022-12-15T12:13:27.402Z,1.52
2022-12-15T12:15:55.986Z,1.40
2022-12-15T12:18:29.621Z,2.15
2022-12-15T12:21:15.556Z,3.17
2022-12-15T12:23:52.480Z,1.63
2022-12-15T12:26:27.315Z,1.98
2022-12-15T12:29:07.406Z,2.22
2022-12-15T12:31:47.655Z,3.08
2022-12-15T12:34:39.120Z,1.85
2022-12-15T12:37:22.876Z,2.35
2022-12-15T12:39:52.442Z,1.17
2022-12-15T12:42:35.907Z,1.30
2022-12-15T12:45:04.686Z,3.47
2022-12-15T12:47:44.729Z,2.83
2022-12-15T12:50:25.224Z,3.47
2022-12-15T12:52:59.289Z,2.83
2022-12-15T12:55:37.075Z,1.38
2022-12-15T12:58:32.207Z,1.40
2022-12-15T13:01:06.478Z,2.97
2022-12-15T13:03:39.951Z,2.72
2022-12-15T13:08:55.892Z,3.45
2022-12-15T13:12:00.827Z,2.22
2022-12-15T13:14:48.243Z,1.52
2022-12-15T13:17:31.687Z,1.92
2022-12-15T13:20:02.512Z,3.58
2022-12-15T13:22:33.958Z,2.65
2022-12-15T13:25:03.532Z,1.98
2022-12-15T13:27:40.746Z,3.75
2022-12-15T13:30:08.857Z,2.75
2022-12-15T13:32:51.773Z,2.13
2022-12-15T13:35:29.833Z,2.75
2022-12-15T13:38:07.455Z,2.92
2022-12-15T13:40:35.790Z,2.92
2022-12-15T13:43:04.472Z,3.25
2022-12-15T13:45:39.831Z,3.72
2022-12-15T13:48:24.239Z,4.30
2022-12-15T13:51:03.422Z,4.45
2022-12-15T13:53:39.016Z,3.42
2022-12-15T13:56:36.645Z,3.95
2022-12-15T13:59:14.246Z,4.68
2022-12-15T14:01:52.570Z,3.95
2022-12-15T14:04:21.759Z,4.15
2022-12-15T14:06:56.637Z,4.75
2022-12-15T14:09:41.607Z,4.45
2022-12-15T14:12:14.055Z,4.18
2022-12-15T14:14:50.017Z,4.20
2022-12-15T14:17:19.724Z,4.43
2022-12-15T14:22:43.148Z,6.65
2022-12-15T14:25:29.459Z,4.57
2022-12-15T14:27:57.638Z,4.75
2022-12-15T14:30:33.238Z,4.22
2022-12-15T14:33:11.075Z,5.88
2022-12-15T14:35:49.478Z,5.68
2022-12-15T14:38:21.492Z,4.95
2022-12-15T14:40:52.404Z,4.18
2022-12-15T14:43:35.408Z,2.70
2022-12-15T14:46:12.050Z,7.07
2022-12-15T14:48:45.350Z,5.28
2022-12-15T14:51:14.990Z,7.35
2022-12-15T14:53:49.671Z,6.32
2022-12-15T14:59:21.229Z,8.27
2022-12-15T15:01:59.602Z,5.85
2022-12-15T15:03:09.675Z,1.70
2022-12-15T15:03:09.887Z,1.45
2022-12-15T15:03:15.775Z,4.78
2022-12-15T15:04:36.343Z,4.53
2022-12-15T15:07:17.632Z,4.88
2022-12-15T15:09:47.042Z,4.60
2022-12-15T15:12:21.086Z,4.45
2022-12-15T15:15:00.894Z,4.15
2022-12-15T15:17:50.077Z,3.97
2022-12-15T15:20:30.696Z,4.47
2022-12-15T15:23:07.611Z,2.90
2022-12-15T15:25:41.662Z,3.80
2022-12-15T15:28:19.175Z,4.15
2022-12-15T15:30:56.583Z,4.28
2022-12-15T15:33:26.117Z,5.35
2022-12-15T15:35:58.616Z,3.88
2022-12-15T15:38:35.049Z,6.30
2022-12-15T15:41:23.462Z,6.00
2022-12-15T15:43:52.258Z,5.03
2022-12-15T15:46:27.985Z,7.72
2022-12-15T15:49:02.275Z,8.63
2022-12-15T15:51:32.303Z,5.95
2022-12-15T15:54:12.787Z,7.13
2022-12-15T15:56:41.685Z,4.95
2022-12-15T15:59:16.659Z,5.20
2022-12-15T16:01:46.991Z,3.90
2022-12-15T16:04:15.081Z,5.93
2022-12-15T16:06:47.352Z,5.25
2022-12-15T16:09:17.211Z,5.53
2022-12-15T16:11:46.607Z,4.80
2022-12-15T16:14:17.568Z,6.75
2022-12-15T16:16:45.782Z,7.13
2022-12-15T16:19:14.355Z,6.82
2022-12-15T16:21:43.866Z,5.63
2022-12-15T16:24:17.785Z,5.30
2022-12-15T16:26:49.740Z,6.55
2022-12-15T16:29:21.174Z,7.75
2022-12-15T16:31:52.929Z,7.50
2022-12-15T16:34:21.903Z,6.50
2022-12-15T16:36:50.551Z,5.35
2022-12-15T16:39:28.194Z,5.35
2022-12-15T16:41:57.888Z,6.25
2022-12-15T16:44:27.632Z,7.38
2022-12-15T16:46:56.207Z,6.68
2022-12-15T16:49:25.103Z,5.55
2022-12-15T16:51:54.444Z,4.68
2022-12-15T16:54:28.760Z,8.50
2022-12-15T16:56:58.697Z,6.07
2022-12-15T16:59:36.067Z,7.35
2022-12-15T17:02:27.231Z,6.80
2022-12-15T17:04:56.325Z,7.28
2022-12-15T17:07:27.832Z,5.28
2022-12-15T17:09:59.891Z,3.22
2022-12-15T17:12:28.595Z,4.70
2022-12-15T17:14:59.683Z,4.88
2022-12-15T17:17:29.712Z,5.32
2022-12-15T17:20:28.035Z,6.70
2022-12-15T17:22:49.914Z,8.23
2022-12-15T17:25:51.956Z,5.75
2022-12-15T17:28:17.073Z,5.53
2022-12-15T17:30:46.195Z,6.82
2022-12-15T17:33:25.696Z,7.13
2022-12-15T17:35:56.636Z,5.35
2022-12-15T17:38:52.418Z,10.23
2022-12-15T17:41:50.193Z,7.63
2022-12-15T17:44:36.679Z,7.90
2022-12-15T17:47:08.062Z,6.63
2022-12-15T17:49:37.958Z,5.60
2022-12-15T17:52:29.415Z,3.95
2022-12-15T17:54:58.000Z,5.65
2022-12-15T17:57:26.390Z,4.28
2022-12-15T17:59:54.323Z,3.95
2022-12-15T18:02:23.088Z,4.93
2022-12-15T18:04:52.055Z,7.82
2022-12-15T18:07:23.071Z,6.78
2022-12-15T18:09:52.515Z,7.30
2022-12-15T18:12:26.049Z,7.38
2022-12-15T18:14:56.384Z,7.50
2022-12-15T18:17:24.936Z,6.82
2022-12-15T18:19:53.077Z,9.35
2022-12-15T18:22:24.093Z,6.97
2022-12-15T18:24:53.906Z,6.00
2022-12-15T18:27:28.179Z,7.10
2022-12-15T18:29:57.183Z,7.18
2022-12-15T18:32:27.217Z,8.52
2022-12-15T18:34:56.372Z,6.70
2022-12-15T18:37:25.314Z,6.72
2022-12-15T18:39:56.230Z,7.45
2022-12-15T18:42:31.471Z,7.40
2022-12-15T18:45:00.637Z,6.03
2022-12-15T18:47:28.702Z,7.05
2022-12-15T18:49:57.247Z,5.57
2022-12-15T18:52:30.066Z,5.18
2022-12-15T18:55:01.999Z,4.70
2022-12-15T18:57:36.109Z,5.70
2022-12-15T19:00:19.678Z,6.43
2022-12-15T19:02:48.864Z,5.20
2022-12-15T19:05:29.488Z,4.90
2022-12-15T19:08:28.308Z,9.40
2022-12-15T19:11:02.224Z,7.03
2022-12-15T19:13:36.396Z,5.18
2022-12-15T19:16:06.611Z,5.18
2022-12-15T19:18:53.536Z,4.55
2022-12-15T19:21:42.093Z,3.38
2022-12-15T19:24:15.821Z,5.45
2022-12-15T19:26:44.472Z,5.70
2022-12-15T19:29:22.082Z,2.97
2022-12-15T19:31:51.489Z,3.20
2022-12-15T19:34:20.093Z,2.65
2022-12-15T19:36:48.144Z,3.63
2022-12-15T19:39:42.377Z,2.58
2022-12-15T19:42:24.129Z,3.75
2022-12-15T19:44:52.581Z,5.47
2022-12-15T19:47:20.554Z,3.05
2022-12-15T19:49:48.665Z,3.78
2022-12-15T19:52:18.513Z,4.88
2022-12-15T19:54:50.018Z,3.75
2022-12-15T19:57:19.522Z,5.32
2022-12-15T19:59:47.791Z,5.05
2022-12-15T20:02:18.084Z,4.78
2022-12-15T20:04:47.838Z,4.22
2022-12-15T20:07:27.423Z,3.80
2022-12-15T20:09:58.133Z,2.78
2022-12-15T20:12:27.447Z,1.60
2022-12-15T20:14:55.549Z,1.05
2022-12-15T20:17:23.640Z,1.83
2022-12-15T20:19:52.474Z,2.40
2022-12-15T20:22:20.807Z,1.05
2022-12-15T20:24:48.916Z,1.35
2022-12-15T20:27:18.374Z,2.28
2022-12-15T20:29:46.898Z,1.98
2022-12-15T20:32:20.490Z,2.85
2022-12-15T20:34:48.845Z,1.75
2022-12-15T20:37:25.545Z,1.77
2022-12-15T20:39:57.377Z,1.90
2022-12-15T20:42:26.668Z,1.75
2022-12-15T20:44:55.036Z,1.70
2022-12-15T20:47:26.580Z,1.67
2022-12-15T20:49:55.523Z,1.40
2022-12-15T20:52:26.637Z,3.13
2022-12-15T20:54:55.001Z,1.40
2022-12-15T20:57:23.567Z,1.33
2022-12-15T20:59:52.529Z,2.05
2022-12-15T21:02:33.015Z,2.80
2022-12-15T21:05:03.500Z,2.42
2022-12-15T21:07:32.419Z,2.67
2022-12-15T21:10:02.050Z,2.25
2022-12-15T21:12:57.442Z,3.38
2022-12-15T21:15:25.447Z,1.95
2022-12-15T21:18:16.974Z,2.63
2022-12-15T21:20:43.416Z,3.72
2022-12-15T21:23:24.195Z,2.05
2022-12-15T21:25:52.728Z,3.60
2022-12-15T21:28:23.475Z,3.95
2022-12-15T21:30:52.679Z,2.60
2022-12-15T21:33:21.404Z,3.60
2022-12-15T21:35:49.473Z,4.82
2022-12-15T21:38:30.459Z,2.08
2022-12-15T21:41:02.490Z,2.67
2022-12-15T21:43:34.550Z,2.72
2022-12-15T21:46:10.618Z,2.15
2022-12-15T21:48:57.111Z,2.33
2022-12-15T21:51:27.654Z,2.70
2022-12-15T21:53:55.671Z,3.03
2022-12-15T21:56:23.935Z,3.15
2022-12-15T21:58:54.817Z,2.15
2022-12-15T22:01:31.120Z,3.97
2022-12-15T22:04:04.573Z,2.88
2022-12-15T22:09:00.244Z,2.75
2022-12-15T22:11:31.370Z,2.95
2022-12-15T22:14:03.227Z,4.40
2022-12-15T22:16:31.323Z,4.35
2022-12-15T22:19:00.089Z,4.32
2022-12-15T22:21:28.662Z,3.08
2022-12-15T22:23:57.094Z,5.05
2022-12-15T22:26:29.229Z,3.70
2022-12-15T22:29:01.461Z,3.55
2022-12-15T22:31:30.464Z,4.10
2022-12-15T22:33:58.660Z,4.78
2022-12-15T22:36:26.816Z,4.50
2022-12-15T22:38:54.745Z,2.55
2022-12-15T22:41:24.005Z,2.75
2022-12-15T22:43:54.168Z,3.25
2022-12-15T22:46:25.502Z,2.35
2022-12-15T22:48:54.823Z,2.63
2022-12-15T22:51:23.422Z,3.47
2022-12-15T22:53:51.847Z,1.33
2022-12-15T22:56:26.518Z,3.13
2022-12-15T22:59:03.330Z,2.65
2022-12-15T23:01:31.705Z,2.30
2022-12-15T23:04:00.341Z,3.28
2022-12-15T23:06:29.453Z,1.30
2022-12-15T23:08:57.524Z,2.40
2022-12-15T23:11:37.535Z,1.73
2022-12-15T23:14:12.271Z,1.48
2022-12-15T23:16:42.288Z,1.75
2022-12-15T23:19:23.912Z,1.73
2022-12-15T23:21:52.683Z,2.17
2022-12-15T23:24:20.826Z,1.55
2022-12-15T23:26:48.962Z,1.08
2022-12-15T23:29:17.692Z,1.48
2022-12-15T23:31:45.943Z,1.50
2022-12-15T23:34:14.745Z,1.25
2022-12-15T23:36:43.116Z,1.90
2022-12-15T23:39:11.211Z,0.90
2022-12-15T23:41:39.923Z,1.08
2022-12-15T23:44:08.220Z,0.47
2022-12-15T23:46:37.030Z,2.33
2022-12-15T23:49:06.949Z,1.50
2022-12-15T23:51:35.456Z,1.27
2022-12-15T23:54:04.550Z,1.00
2022-12-15T23:56:32.617Z,2.15
2022-12-15T23:59:00.958Z,2.15
